CheckWX is a tool to help pilots better visualize weather data.  It is not intended as a substitute for an official pre-flight weather briefing.

03:14:50 UTC

KLMT TAF
Crater Lake-Klamath Regional Airport
Klamath Falls, Oregon, USA
KLMT 300536Z 3006/3106 16007KT P6SM VCSH OVC120 FM300900 29009KT P6SM SCT030 OVC050 FM301600 25012KT 6SM -SHRA SCT030 BKN050 FM301900 23020G29KT 5SM SHRA VCTS SCT015 BKN025 OVC050CB FM310100 23011G19KT 6SM -SHRA BR BKN025 OVC040

May-30@
06:00 UTC

May-30 @ 06:00 UTC

May-30@
09:00 UTC

May-30 @ 09:00 UTC

TAF KLMT 300536Z 3006/3106 16007KT P6SM VCSH OVC120

Expired

Wind
  • 160° at 7 KTS
Conditions
Area Showers
Cloud Levels
  • Overcast at 12,000' AGL

May-30@
09:00 UTC

May-30 @ 09:00 UTC

May-30@
16:00 UTC

May-30 @ 16:00 UTC

FM300900 29009KT P6SM SCT030 OVC050

Expired

Wind
  • 290° at 9 KTS
Cloud Levels
  • Scattered at 3,000' AGL
  • Overcast at 5,000' AGL

May-30@
16:00 UTC

May-30 @ 16:00 UTC

May-30@
19:00 UTC

May-30 @ 19:00 UTC

FM301600 25012KT 6SM -SHRA SCT030 BKN050

Expired

Wind
  • 250° at 12 KTS
Conditions
Light Showers, Rain
Cloud Levels
  • Scattered at 3,000' AGL
  • Broken at 5,000' AGL

May-30@
19:00 UTC

May-30 @ 19:00 UTC

May-31@
01:00 UTC

May-31 @ 01:00 UTC

FM301900 23020G29KT 5SM SHRA VCTS SCT015 BKN025 OVC050CB

Expired

Wind
  • 230° at 20 KTS
  • {Gusting to 29 KTS
Conditions
Showers, Rain, Area Thunderstorm
Cloud Levels
  • Scattered at 1,500' AGL
  • Broken at 2,500' AGL
  • Overcast at 5,000' AGL

May-31@
01:00 UTC

May-31 @ 01:00 UTC

May-31@
06:00 UTC

May-31 @ 06:00 UTC

FM310100 23011G19KT 6SM -SHRA BR BKN025 OVC040

From

From Standard forecast or significant change

Wind
  • 230° at 11 KTS
  • {Gusting to 19 KTS
Conditions
Light Showers, Rain, Mist
Cloud Levels
  • Broken at 2,500' AGL
  • Overcast at 4,000' AGL